createdAt,value
2018-06-10T00:01:24.912Z,8.40
2018-06-10T00:04:02.816Z,7.27
2018-06-10T00:06:42.136Z,7.50
2018-06-10T00:09:26.101Z,6.27
2018-06-10T00:11:58.072Z,4.30
2018-06-10T00:14:33.825Z,5.50
2018-06-10T00:17:11.825Z,5.97
2018-06-10T00:19:45.219Z,4.57
2018-06-10T00:22:26.152Z,5.53
2018-06-10T00:25:04.824Z,6.17
2018-06-10T00:27:43.956Z,5.73
2018-06-10T00:30:20.323Z,7.73
2018-06-10T00:32:53.824Z,4.97
2018-06-10T00:35:30.097Z,6.03
2018-06-10T00:38:10.556Z,6.20
2018-06-10T00:40:42.009Z,7.47
2018-06-10T00:43:17.671Z,6.90
2018-06-10T00:45:59.866Z,7.60
2018-06-10T00:48:37.154Z,7.47
2018-06-10T00:51:14.855Z,5.73
2018-06-10T00:53:56.036Z,6.43
2018-06-10T00:56:38.549Z,6.70
2018-06-10T00:59:13.387Z,6.40
2018-06-10T01:01:47.912Z,6.27
2018-06-10T01:04:22.533Z,5.23
2018-06-10T01:07:04.201Z,5.23
2018-06-10T01:09:39.885Z,7.50
2018-06-10T01:12:18.205Z,6.57
2018-06-10T01:14:49.652Z,6.73
2018-06-10T01:17:31.037Z,7.13
2018-06-10T01:20:10.887Z,7.97
2018-06-10T01:22:45.612Z,11.60
2018-06-10T01:25:27.219Z,6.77
2018-06-10T01:28:01.420Z,5.53
2018-06-10T01:30:33.898Z,9.60
2018-06-10T01:33:12.927Z,8.77
2018-06-10T01:35:45.820Z,6.67
2018-06-10T01:38:23.295Z,9.93
2018-06-10T01:40:58.654Z,6.80
2018-06-10T01:43:30.927Z,9.23
2018-06-10T01:46:01.456Z,8.83
2018-06-10T01:48:34.446Z,7.40
2018-06-10T01:51:06.921Z,5.73
2018-06-10T01:53:51.250Z,7.17
2018-06-10T01:56:26.624Z,10.17
2018-06-10T01:59:09.255Z,8.90
2018-06-10T02:01:43.660Z,8.17
2018-06-10T02:04:17.266Z,6.60
2018-06-10T02:06:52.710Z,7.23
2018-06-10T02:09:28.259Z,7.33
2018-06-10T02:12:05.455Z,7.00
2018-06-10T02:14:55.271Z,5.60
2018-06-10T02:17:36.515Z,5.30
2018-06-10T02:20:12.472Z,6.70
2018-06-10T02:22:44.948Z,5.00
2018-06-10T02:25:19.680Z,4.47
2018-06-10T02:28:00.963Z,4.90
2018-06-10T02:30:33.952Z,6.63
2018-06-10T02:33:13.093Z,7.20
2018-06-10T02:35:49.457Z,4.53
2018-06-10T02:38:21.626Z,5.07
2018-06-10T02:40:56.968Z,7.50
2018-06-10T02:43:30.777Z,7.93
2018-06-10T02:46:13.306Z,7.33
2018-06-10T02:49:00.002Z,7.27
2018-06-10T02:51:35.659Z,6.63
2018-06-10T02:54:18.165Z,5.53
2018-06-10T02:56:59.972Z,6.97
2018-06-10T02:59:31.720Z,7.63
2018-06-10T03:02:06.343Z,9.17
2018-06-10T03:04:44.765Z,5.63
2018-06-10T03:07:22.464Z,9.70
2018-06-10T03:09:59.343Z,6.17
2018-06-10T03:12:31.515Z,9.67
2018-06-10T03:15:07.483Z,6.80
2018-06-10T03:17:54.341Z,7.50
2018-06-10T03:20:32.497Z,6.83
2018-06-10T03:23:13.276Z,7.40
2018-06-10T03:25:49.339Z,5.83
2018-06-10T03:28:34.209Z,5.43
2018-06-10T03:31:12.924Z,5.00
2018-06-10T03:33:51.236Z,7.10
2018-06-10T03:36:33.039Z,5.13
2018-06-10T03:39:08.371Z,9.30
2018-06-10T03:41:39.931Z,4.80
2018-06-10T03:44:18.368Z,5.23
2018-06-10T03:46:50.626Z,6.33
2018-06-10T03:49:26.067Z,7.07
2018-06-10T03:52:06.374Z,5.90
2018-06-10T03:54:45.455Z,7.63
2018-06-10T03:57:17.936Z,5.63
2018-06-10T03:59:56.453Z,6.83
2018-06-10T04:02:39.391Z,6.37
2018-06-10T04:05:16.565Z,6.97
2018-06-10T04:08:00.396Z,5.57
2018-06-10T04:10:33.605Z,8.00
2018-06-10T04:13:10.080Z,6.27
2018-06-10T04:15:40.613Z,6.77
2018-06-10T04:18:25.166Z,6.40
2018-06-10T04:21:00.099Z,5.30
2018-06-10T04:23:40.412Z,6.67
2018-06-10T04:26:16.936Z,6.63
2018-06-10T04:28:57.198Z,7.73
2018-06-10T04:31:37.041Z,6.50
2018-06-10T04:34:15.456Z,7.93
2018-06-10T04:36:50.197Z,6.37
2018-06-10T04:39:27.280Z,8.27
2018-06-10T04:42:01.594Z,6.27
2018-06-10T04:44:33.668Z,5.97
2018-06-10T04:47:11.705Z,7.57
2018-06-10T04:49:43.839Z,4.93
2018-06-10T04:52:16.110Z,6.87
2018-06-10T04:54:50.443Z,5.03
2018-06-10T04:57:30.588Z,6.93
2018-06-10T05:00:02.143Z,6.93
2018-06-10T05:02:40.150Z,7.43
2018-06-10T05:05:23.453Z,6.23
2018-06-10T05:08:02.922Z,6.70
2018-06-10T05:10:35.098Z,11.57
2018-06-10T05:13:10.639Z,5.80
2018-06-10T05:15:54.463Z,7.53
2018-06-10T05:18:31.672Z,5.87
2018-06-10T05:21:09.889Z,6.50
2018-06-10T05:23:54.042Z,6.53
2018-06-10T05:26:32.667Z,6.47
2018-06-10T05:29:05.132Z,5.63
2018-06-10T05:31:42.519Z,7.43
2018-06-10T05:34:25.447Z,6.40
2018-06-10T05:36:57.623Z,11.00
2018-06-10T05:39:39.489Z,10.37
2018-06-10T05:42:25.218Z,6.83
2018-06-10T05:44:58.703Z,7.83
2018-06-10T05:47:31.180Z,9.53
2018-06-10T05:50:05.706Z,6.73
2018-06-10T05:52:45.145Z,6.70
2018-06-10T05:55:18.351Z,8.03
2018-06-10T05:57:54.515Z,8.27
2018-06-10T06:00:39.474Z,6.03
2018-06-10T06:03:22.197Z,5.83
2018-06-10T06:05:55.486Z,6.60
2018-06-10T06:08:29.714Z,6.37
2018-06-10T06:11:06.279Z,9.23
2018-06-10T06:13:38.037Z,7.97
2018-06-10T06:16:11.130Z,6.23
2018-06-10T06:18:49.348Z,5.40
2018-06-10T06:21:33.288Z,6.33
2018-06-10T06:24:07.716Z,8.13
2018-06-10T06:26:43.162Z,8.10
2018-06-10T06:29:17.996Z,8.57
2018-06-10T06:31:56.917Z,7.13
2018-06-10T06:34:28.472Z,7.77
2018-06-10T06:37:04.632Z,5.77
2018-06-10T06:39:37.215Z,6.77
2018-06-10T06:42:11.228Z,4.83
2018-06-10T06:44:50.982Z,8.17
2018-06-10T06:47:27.863Z,5.77
2018-06-10T06:50:12.564Z,5.23
2018-06-10T06:52:48.997Z,6.40
2018-06-10T06:55:21.979Z,5.87
2018-06-10T06:57:54.168Z,6.67
2018-06-10T07:00:28.981Z,4.37
2018-06-10T07:03:04.742Z,6.60
2018-06-10T07:05:36.810Z,9.93
2018-06-10T07:08:17.585Z,8.57
2018-06-10T07:11:03.587Z,8.60
2018-06-10T07:13:43.419Z,9.53
2018-06-10T07:16:13.950Z,11.83
2018-06-10T07:18:54.871Z,9.10
2018-06-10T07:21:38.627Z,8.40
2018-06-10T07:24:13.089Z,6.73
2018-06-10T07:26:54.073Z,11.07
2018-06-10T07:29:31.357Z,9.73
2018-06-10T07:32:10.296Z,11.63
2018-06-10T07:34:49.320Z,8.10
2018-06-10T07:37:33.166Z,10.10
2018-06-10T07:40:05.625Z,9.60
2018-06-10T07:42:44.257Z,8.03
2018-06-10T07:45:16.326Z,9.33
2018-06-10T07:47:48.291Z,8.13
2018-06-10T07:50:32.141Z,9.90
2018-06-10T07:53:14.755Z,11.23
2018-06-10T07:55:50.298Z,10.87
2018-06-10T07:58:26.973Z,11.60
2018-06-10T08:01:09.640Z,7.10
2018-06-10T08:03:46.783Z,13.30
2018-06-10T08:06:25.601Z,13.63
2018-06-10T08:08:58.283Z,13.77
2018-06-10T08:11:42.653Z,11.03
2018-06-10T08:14:29.277Z,8.60
2018-06-10T08:17:09.201Z,8.47
2018-06-10T08:19:48.436Z,10.00
2018-06-10T08:22:19.998Z,9.83
2018-06-10T08:24:54.626Z,10.27
2018-06-10T08:27:38.367Z,10.87
2018-06-10T08:30:17.670Z,8.83
2018-06-10T08:32:55.919Z,14.63
2018-06-10T08:35:28.695Z,6.87
2018-06-10T08:38:00.866Z,9.80
2018-06-10T08:40:42.683Z,6.07
2018-06-10T08:43:25.489Z,8.57
2018-06-10T08:46:08.691Z,9.97
2018-06-10T08:48:46.104Z,7.47
2018-06-10T08:51:26.695Z,10.87
2018-06-10T08:54:05.093Z,9.97
2018-06-10T08:56:40.947Z,7.37
2018-06-10T08:59:13.118Z,8.13
2018-06-10T09:01:43.446Z,7.47
2018-06-10T09:04:13.671Z,5.87
2018-06-10T09:06:43.585Z,5.60
2018-06-10T09:09:14.213Z,6.57
2018-06-10T09:11:44.649Z,6.53
2018-06-10T09:14:14.866Z,6.43
2018-06-10T09:16:45.295Z,7.97
2018-06-10T09:19:15.219Z,5.47
2018-06-10T09:21:46.058Z,5.40
2018-06-10T09:24:16.691Z,8.37
2018-06-10T09:26:46.704Z,9.40
2018-06-10T09:29:16.724Z,6.10
2018-06-10T09:31:47.261Z,6.03
2018-06-10T09:34:17.076Z,7.70
2018-06-10T09:36:46.884Z,6.97
2018-06-10T09:39:16.911Z,6.57
2018-06-10T09:41:47.033Z,7.87
2018-06-10T09:44:25.545Z,10.33
2018-06-10T09:46:55.765Z,8.57
2018-06-10T09:49:25.900Z,6.53
2018-06-10T09:51:57.756Z,10.63
2018-06-10T09:54:27.373Z,7.40
2018-06-10T09:56:57.900Z,10.47
2018-06-10T09:59:27.716Z,9.93
2018-06-10T10:01:57.326Z,10.90
2018-06-10T10:04:27.236Z,10.47
2018-06-10T10:06:57.467Z,11.90
2018-06-10T10:09:27.698Z,9.33
2018-06-10T10:12:00.162Z,6.87
2018-06-10T10:14:51.422Z,7.47
2018-06-10T10:17:21.711Z,10.00
2018-06-10T10:19:51.937Z,9.07
2018-06-10T10:22:26.660Z,8.37
2018-06-10T10:25:01.087Z,8.53
2018-06-10T10:27:39.606Z,7.73
2018-06-10T10:30:12.187Z,6.17
2018-06-10T10:32:49.988Z,8.13
2018-06-10T10:35:24.508Z,8.40
2018-06-10T10:38:10.821Z,10.03
2018-06-10T10:40:46.460Z,7.93
2018-06-10T10:43:16.691Z,6.03
2018-06-10T10:45:46.710Z,7.70
2018-06-10T10:48:21.644Z,6.47
2018-06-10T10:50:57.895Z,5.80
2018-06-10T10:53:37.139Z,6.90
2018-06-10T10:56:11.262Z,5.67
2018-06-10T10:58:43.323Z,5.13
2018-06-10T11:01:18.975Z,7.27
2018-06-10T11:03:51.455Z,7.20
2018-06-10T11:06:21.376Z,7.43
2018-06-10T11:08:51.592Z,6.00
2018-06-10T11:11:30.520Z,5.30
2018-06-10T11:14:00.444Z,5.13
2018-06-10T11:16:30.458Z,5.17
2018-06-10T11:19:00.484Z,6.87
2018-06-10T11:21:30.394Z,7.97
2018-06-10T11:24:00.822Z,5.80
2018-06-10T11:26:30.534Z,6.30
2018-06-10T11:29:00.565Z,7.10
2018-06-10T11:31:30.676Z,6.43
2018-06-10T11:34:01.214Z,7.47
2018-06-10T11:36:31.741Z,6.50
2018-06-10T11:39:01.554Z,5.70
2018-06-10T11:41:35.054Z,7.27
2018-06-10T11:44:13.165Z,5.30
2018-06-10T11:46:47.483Z,5.60
2018-06-10T11:49:21.495Z,6.37
2018-06-10T11:51:55.937Z,5.17
2018-06-10T11:54:33.935Z,3.70
2018-06-10T11:57:07.325Z,5.73
2018-06-10T11:59:39.494Z,7.67
2018-06-10T12:02:10.650Z,4.93
2018-06-10T12:04:47.522Z,7.40
2018-06-10T12:07:26.861Z,6.43
2018-06-10T12:10:01.186Z,5.60
2018-06-10T12:12:34.578Z,4.57
2018-06-10T12:15:38.536Z,6.20
2018-06-10T12:18:11.073Z,4.27
2018-06-10T12:20:46.621Z,3.83
2018-06-10T12:23:17.965Z,5.97
2018-06-10T12:26:00.695Z,6.37
2018-06-10T12:28:34.394Z,5.93
2018-06-10T12:31:16.709Z,4.60
2018-06-10T12:33:52.871Z,5.77
2018-06-10T12:36:29.138Z,4.97
2018-06-10T12:39:03.146Z,3.97
2018-06-10T12:41:48.943Z,5.40
2018-06-10T12:44:23.978Z,4.63
2018-06-10T12:47:00.026Z,4.77
2018-06-10T12:49:37.426Z,3.77
2018-06-10T12:52:07.857Z,3.37
2018-06-10T12:54:50.675Z,3.93
2018-06-10T12:57:24.177Z,5.57
2018-06-10T13:00:01.160Z,3.80
2018-06-10T13:02:44.003Z,3.97
2018-06-10T13:05:20.963Z,4.63
2018-06-10T13:07:55.186Z,6.17
2018-06-10T13:10:30.025Z,4.97
2018-06-10T13:13:13.016Z,7.47
2018-06-10T13:19:10.728Z,7.53
2018-06-10T13:21:44.339Z,3.97
2018-06-10T13:24:24.388Z,6.07
2018-06-10T13:27:05.979Z,7.30
2018-06-10T13:29:38.662Z,3.90
2018-06-10T13:32:14.517Z,5.43
2018-06-10T13:34:48.734Z,4.73
2018-06-10T13:37:28.591Z,3.73
2018-06-10T13:40:00.755Z,3.50
2018-06-10T13:42:43.471Z,5.70
2018-06-10T13:45:19.048Z,5.00
2018-06-10T13:47:51.084Z,5.13
2018-06-10T13:50:30.938Z,4.60
2018-06-10T13:53:02.290Z,4.70
2018-06-10T13:55:36.510Z,2.87
2018-06-10T13:58:15.117Z,3.20
2018-06-10T14:01:01.068Z,4.40
2018-06-10T14:03:33.804Z,2.73
2018-06-10T14:06:10.279Z,2.80
2018-06-10T14:08:45.319Z,3.80
2018-06-10T14:11:31.410Z,4.80
2018-06-10T14:14:10.749Z,4.80
2018-06-10T14:16:50.392Z,4.03
2018-06-10T14:19:24.517Z,5.03
2018-06-10T14:22:00.263Z,2.77
2018-06-10T14:24:32.840Z,4.20
2018-06-10T14:27:04.153Z,3.53
2018-06-10T14:29:40.254Z,4.77
2018-06-10T14:32:16.125Z,4.10
2018-06-10T14:35:03.115Z,5.43
2018-06-10T14:37:36.528Z,4.67
2018-06-10T14:40:12.795Z,3.83
2018-06-10T14:42:51.105Z,4.40
2018-06-10T14:45:23.286Z,3.23
2018-06-10T14:48:03.853Z,3.93
2018-06-10T14:50:39.809Z,3.77
2018-06-10T14:53:21.911Z,3.73
2018-06-10T14:55:59.410Z,3.60
2018-06-10T14:58:52.979Z,7.63
2018-06-10T15:01:35.689Z,5.37
2018-06-10T15:04:14.521Z,5.33
2018-06-10T15:06:48.324Z,4.37
2018-06-10T15:09:29.148Z,2.90
2018-06-10T15:12:03.832Z,5.03
2018-06-10T15:14:55.953Z,4.80
2018-06-10T15:17:31.006Z,3.73
2018-06-10T15:20:06.228Z,4.00
2018-06-10T15:22:39.226Z,3.80
2018-06-10T15:25:15.292Z,7.83
2018-06-10T15:27:49.009Z,5.90
2018-06-10T15:30:20.861Z,3.53
2018-06-10T15:32:51.496Z,3.73
2018-06-10T15:35:23.562Z,3.77
2018-06-10T15:38:03.180Z,3.33
2018-06-10T15:40:45.183Z,2.93
2018-06-10T15:43:30.191Z,5.17
2018-06-10T15:46:08.302Z,3.33
2018-06-10T15:48:48.236Z,4.83
2018-06-10T15:51:23.387Z,2.57
2018-06-10T15:54:00.882Z,2.97
2018-06-10T15:56:31.508Z,3.60
2018-06-10T15:59:00.925Z,3.83
2018-06-10T16:01:33.601Z,4.50
2018-06-10T16:04:12.737Z,3.77
2018-06-10T16:06:45.924Z,3.37
2018-06-10T16:09:17.375Z,2.37
2018-06-10T16:11:59.231Z,3.60
2018-06-10T16:14:48.955Z,2.07
2018-06-10T16:17:22.872Z,3.43
2018-06-10T16:20:02.926Z,3.13
2018-06-10T16:22:43.180Z,3.73
2018-06-10T16:25:19.650Z,2.23
2018-06-10T16:27:50.694Z,3.30
2018-06-10T16:30:23.791Z,2.27
2018-06-10T16:32:53.702Z,2.40
2018-06-10T16:35:32.946Z,2.53
2018-06-10T16:38:11.067Z,3.77
2018-06-10T16:40:50.794Z,2.90
2018-06-10T16:43:23.178Z,2.43
2018-06-10T16:45:59.442Z,4.57
2018-06-10T16:48:37.257Z,4.17
2018-06-10T16:51:19.859Z,4.47
2018-06-10T16:53:58.063Z,4.07
2018-06-10T16:56:39.654Z,6.40
2018-06-10T16:59:11.833Z,3.17
2018-06-10T17:01:43.923Z,3.70
2018-06-10T17:04:15.960Z,5.20
2018-06-10T17:06:49.461Z,5.07
2018-06-10T17:09:34.297Z,4.20
2018-06-10T17:12:12.284Z,2.73
2018-06-10T17:15:21.328Z,3.03
2018-06-10T17:17:59.990Z,6.43
2018-06-10T17:20:32.469Z,3.63
2018-06-10T17:23:05.764Z,2.93
2018-06-10T17:25:41.005Z,4.17
2018-06-10T17:28:13.996Z,5.47
2018-06-10T17:30:50.301Z,5.47
2018-06-10T17:33:25.305Z,4.20
2018-06-10T17:35:58.704Z,5.43
2018-06-10T17:38:36.500Z,4.77
2018-06-10T17:41:09.796Z,3.50
2018-06-10T17:43:47.086Z,3.57
2018-06-10T17:46:23.863Z,5.70
2018-06-10T17:49:03.324Z,4.67
2018-06-10T17:51:41.377Z,5.77
2018-06-10T17:54:17.988Z,4.43
2018-06-10T17:56:59.330Z,4.53
2018-06-10T17:59:42.357Z,3.30
2018-06-10T18:02:17.331Z,4.67
2018-06-10T18:04:54.723Z,2.77
2018-06-10T18:07:36.341Z,4.40
2018-06-10T18:10:10.346Z,4.93
2018-06-10T18:12:44.413Z,3.37
2018-06-10T18:18:34.054Z,3.10
2018-06-10T18:21:17.377Z,3.37
2018-06-10T18:23:50.678Z,2.97
2018-06-10T18:26:26.143Z,3.07
2018-06-10T18:29:03.922Z,3.70
2018-06-10T18:31:47.424Z,4.47
2018-06-10T18:34:20.038Z,4.10
2018-06-10T18:36:55.091Z,4.17
2018-06-10T18:39:36.979Z,3.10
2018-06-10T18:42:17.379Z,3.93
2018-06-10T18:44:56.381Z,3.03
2018-06-10T18:47:35.096Z,4.47
2018-06-10T18:50:08.489Z,3.87
2018-06-10T18:52:46.085Z,5.07
2018-06-10T18:55:21.330Z,6.17
2018-06-10T18:57:53.089Z,25.53
2018-06-10T19:00:34.402Z,40.20
2018-06-10T19:03:09.725Z,47.93
2018-06-10T19:05:42.610Z,38.83
2018-06-10T19:08:18.355Z,25.70
2018-06-10T19:11:04.412Z,17.40
2018-06-10T19:13:40.105Z,14.47
2018-06-10T19:19:32.584Z,8.23
2018-06-10T19:22:10.281Z,7.33
2018-06-10T19:24:43.067Z,8.30
2018-06-10T19:27:19.023Z,6.27
2018-06-10T19:30:01.231Z,9.03
2018-06-10T19:32:45.439Z,6.27
2018-06-10T19:35:20.110Z,5.80
2018-06-10T19:37:57.190Z,4.47
2018-06-10T19:40:32.130Z,6.97
2018-06-10T19:43:04.490Z,13.30
2018-06-10T19:45:42.915Z,26.37
2018-06-10T19:48:27.374Z,22.87
2018-06-10T19:51:03.134Z,19.80
2018-06-10T19:53:33.767Z,18.40
2018-06-10T19:56:04.803Z,18.07
2018-06-10T19:58:35.233Z,17.07
2018-06-10T20:01:05.979Z,16.90
2018-06-10T20:03:36.709Z,10.37
2018-06-10T20:06:06.503Z,14.07
2018-06-10T20:08:36.745Z,9.80
2018-06-10T20:11:06.766Z,6.93
2018-06-10T20:13:46.928Z,5.43
2018-06-10T20:19:48.203Z,5.53
2018-06-10T20:22:21.186Z,8.60
2018-06-10T20:25:00.115Z,8.17
2018-06-10T20:30:53.302Z,6.73
2018-06-10T20:33:38.884Z,6.47
2018-06-10T20:36:15.252Z,5.17
2018-06-10T20:38:54.284Z,5.27
2018-06-10T20:41:36.191Z,5.87
2018-06-10T20:44:12.549Z,7.63
2018-06-10T20:46:52.406Z,4.57
2018-06-10T20:49:30.099Z,4.80
2018-06-10T20:52:07.184Z,3.73
2018-06-10T20:54:44.988Z,2.87
2018-06-10T20:57:20.331Z,3.17
2018-06-10T20:59:52.296Z,3.53
2018-06-10T21:02:31.648Z,4.57
2018-06-10T21:05:12.636Z,7.37
2018-06-10T21:07:44.366Z,6.43
2018-06-10T21:10:18.800Z,4.33
2018-06-10T21:13:00.083Z,4.83
2018-06-10T21:19:25.026Z,5.37
2018-06-10T21:22:24.278Z,6.43
2018-06-10T21:25:16.856Z,2.97
2018-06-10T21:27:52.759Z,5.80
2018-06-10T21:30:32.670Z,3.40
2018-06-10T21:33:12.931Z,3.93
2018-06-10T21:35:47.866Z,3.90
2018-06-10T21:38:21.367Z,3.27
2018-06-10T21:40:52.688Z,5.50
2018-06-10T21:43:23.566Z,3.70
2018-06-10T21:45:53.780Z,2.80
2018-06-10T21:48:24.827Z,2.50
2018-06-10T21:50:54.946Z,4.13
2018-06-10T21:53:26.194Z,3.83
2018-06-10T21:55:56.016Z,4.60
2018-06-10T21:58:26.961Z,1.73
2018-06-10T22:00:59.434Z,2.60
2018-06-10T22:03:29.744Z,2.50
2018-06-10T22:06:00.293Z,2.30
2018-06-10T22:08:38.805Z,2.40
2018-06-10T22:11:09.240Z,4.53
2018-06-10T22:13:43.356Z,3.50
2018-06-10T22:16:13.476Z,2.40
2018-06-10T22:18:45.237Z,2.80
2018-06-10T22:21:15.251Z,2.20
2018-06-10T22:23:51.634Z,3.37
2018-06-10T22:26:22.671Z,2.07
2018-06-10T22:28:52.892Z,2.23
2018-06-10T22:31:23.419Z,3.27
2018-06-10T22:33:53.542Z,2.27
2018-06-10T22:36:23.760Z,2.07
2018-06-10T22:38:54.706Z,3.10
2018-06-10T22:41:24.731Z,2.23
2018-06-10T22:43:54.436Z,2.67
2018-06-10T22:46:24.252Z,2.43
2018-06-10T22:48:54.278Z,2.10
2018-06-10T22:51:24.501Z,2.77
2018-06-10T22:54:56.772Z,2.53
2018-06-10T22:57:26.596Z,1.70
2018-06-10T22:59:56.310Z,2.20
2018-06-10T23:02:26.225Z,3.63
2018-06-10T23:04:58.821Z,1.87
2018-06-10T23:07:28.620Z,4.33
2018-06-10T23:09:58.434Z,2.63
2018-06-10T23:12:28.556Z,2.67
2018-06-10T23:14:58.466Z,1.73
2018-06-10T23:17:29.099Z,2.60
2018-06-10T23:19:58.608Z,2.03
2018-06-10T23:22:28.826Z,2.47
2018-06-10T23:24:59.363Z,3.43
2018-06-10T23:27:29.793Z,2.43
2018-06-10T23:30:00.221Z,2.47
2018-06-10T23:32:30.036Z,1.97
2018-06-10T23:34:59.846Z,3.57
2018-06-10T23:37:30.383Z,2.53
2018-06-10T23:40:01.025Z,2.67
2018-06-10T23:42:37.814Z,3.73
2018-06-10T23:45:09.766Z,3.47
2018-06-10T23:47:39.872Z,2.00
2018-06-10T23:50:09.887Z,4.17
2018-06-10T23:52:40.021Z,2.17
2018-06-10T23:55:10.761Z,3.10
2018-06-10T23:57:40.169Z,3.20
